Time;durP1;ratioP1;P1;durP2;ratioP2;P2;SDS_P1;SDS_P2;PMS_P1;PMS_P2;Temp;Humidity;BMP_temperature;BMP_pressure;BME280_temperature;BME280_humidity;BME280_pressure;Samples;Min_cycle;Max_cycle;Signal;HPM_P1;HPM_P2
2022/11/10 00:01:31;;;;;;;38.02;25.75;;;;;;;4.47;85.82;100558.95;3271549;84;20998;-74
2022/11/10 00:06:41;;;;;;;39.63;24.98;;;;;;;4.51;86.22;100565.97;3283521;84;21047;-74
2022/11/10 00:11:51;;;;;;;33.20;23.57;;;;;;;4.50;86.23;100544.88;3293211;83;21019;-75
2022/11/10 00:17:00;;;;;;;36.33;23.77;;;;;;;4.49;86.23;100541.86;3261055;85;21049;-74
2022/11/10 00:22:10;;;;;;;35.52;24.90;;;;;;;4.49;86.34;100539.28;3270407;84;21708;-74
2022/11/10 00:27:20;;;;;;;37.35;24.27;;;;;;;4.45;86.10;100547.69;3275221;84;21627;-74
2022/11/10 00:32:29;;;;;;;32.35;23.25;;;;;;;4.44;86.28;100534.36;3288435;84;21639;-75
2022/11/10 00:37:38;;;;;;;35.52;25.30;;;;;;;4.45;86.34;100548.11;3261169;84;21048;-75
2022/11/10 00:42:50;;;;;;;37.08;24.45;;;;;;;4.44;86.46;100553.67;3270649;84;21078;-75
2022/11/10 00:47:59;;;;;;;37.75;23.60;;;;;;;4.47;86.72;100547.36;3245555;84;21402;-76
2022/11/10 00:53:09;;;;;;;39.38;26.17;;;;;;;4.50;86.60;100550.45;3240435;85;21061;-75
2022/11/10 00:58:19;;;;;;;36.42;25.35;;;;;;;4.53;86.58;100545.43;3233870;85;21581;-73
2022/11/10 01:03:34;;;;;;;36.13;24.60;;;;;;;4.58;86.87;100543.50;3262222;84;21631;-74
2022/11/10 01:08:45;;;;;;;42.30;25.00;;;;;;;4.64;86.77;100556.14;3289279;84;21418;-73
2022/11/10 01:13:56;;;;;;;35.68;23.70;;;;;;;4.65;86.79;100550.16;3240471;84;21561;-73
2022/11/10 01:19:06;;;;;;;35.25;23.92;;;;;;;4.73;86.94;100553.91;3255184;84;21094;-73
2022/11/10 01:24:20;;;;;;;35.90;25.80;;;;;;;4.77;86.98;100553.20;3264377;83;20980;-72
2022/11/10 01:29:30;;;;;;;34.13;23.22;;;;;;;4.81;87.15;100558.95;3272935;84;21015;-73
2022/11/10 01:34:39;;;;;;;40.08;26.85;;;;;;;4.86;87.12;100569.00;3253496;84;21639;-73
2022/11/10 01:39:49;;;;;;;39.05;26.35;;;;;;;4.91;87.43;100566.61;3223477;84;20957;-73
2022/11/10 01:45:25;;;;;;;36.83;25.05;;;;;;;4.99;87.62;100559.15;3238704;86;21125;-73
2022/11/10 01:50:39;;;;;;;40.75;27.17;;;;;;;5.04;87.66;100556.34;3310527;83;21499;-73
2022/11/10 01:55:50;;;;;;;39.08;26.23;;;;;;;5.10;87.79;100563.02;3276313;85;21562;-73
2022/11/10 02:00:59;;;;;;;36.53;25.43;;;;;;;5.13;87.82;100561.44;3267721;85;20979;-74
2022/11/10 02:06:11;;;;;;;42.23;26.42;;;;;;;5.15;87.72;100556.31;3260029;84;21054;-74
2022/11/10 02:11:22;;;;;;;34.92;24.10;;;;;;;5.18;87.85;100561.58;3259159;85;21545;-74
2022/11/10 02:16:33;;;;;;;32.73;24.00;;;;;;;5.24;88.14;100567.37;3249132;85;21054;-74
2022/11/10 02:21:42;;;;;;;38.23;26.27;;;;;;;5.29;88.15;100570.61;3258822;85;21637;-74
2022/11/10 02:26:56;;;;;;;42.25;28.23;;;;;;;5.33;88.25;100570.30;3244063;85;21051;-74
2022/11/10 02:32:06;;;;;;;38.98;27.45;;;;;;;5.37;88.40;100567.42;3230030;84;21276;-74
2022/11/10 02:37:16;;;;;;;38.95;27.02;;;;;;;5.41;88.36;100566.70;3249719;84;21637;-74
2022/11/10 02:42:26;;;;;;;39.48;26.90;;;;;;;5.43;88.35;100572.78;3262162;84;21064;-74
2022/11/10 02:47:35;;;;;;;43.05;27.48;;;;;;;5.46;88.47;100570.32;3256533;84;21011;-74
2022/11/10 02:52:45;;;;;;;50.35;30.88;;;;;;;5.49;88.64;100574.27;3245636;84;21047;-74
2022/11/10 02:57:55;;;;;;;42.70;28.60;;;;;;;5.52;88.84;100578.25;3298948;84;21024;-74
2022/11/10 03:03:05;;;;;;;46.28;29.30;;;;;;;5.54;88.82;100577.89;3262352;84;21526;-74
2022/11/10 03:08:15;;;;;;;41.92;27.90;;;;;;;5.57;88.87;100584.46;3283271;86;21138;-74
2022/11/10 03:13:25;;;;;;;47.17;31.17;;;;;;;5.60;88.90;100586.25;3252296;84;21009;-74
2022/11/10 03:18:35;;;;;;;41.85;28.57;;;;;;;5.63;89.04;100591.11;3227952;84;21012;-74
2022/11/10 03:23:44;;;;;;;45.50;30.25;;;;;;;5.66;89.01;100596.80;3246804;85;21043;-75
2022/11/10 03:28:54;;;;;;;43.35;31.97;;;;;;;5.68;89.18;100588.28;3268568;84;21018;-74
2022/11/10 03:34:04;;;;;;;41.73;28.20;;;;;;;5.75;89.25;100585.92;3254469;84;21019;-74
2022/11/10 03:39:14;;;;;;;50.48;31.85;;;;;;;5.77;89.25;100589.44;3291894;84;21031;-74
2022/11/10 03:44:24;;;;;;;43.17;29.82;;;;;;;5.77;89.22;100595.89;3282153;84;21063;-74
2022/11/10 03:49:33;;;;;;;46.18;31.23;;;;;;;5.77;89.35;100595.89;3273683;84;20935;-75
2022/11/10 03:54:43;;;;;;;49.80;33.08;;;;;;;5.78;89.33;100602.78;3269475;84;21050;-74
2022/11/10 03:59:52;;;;;;;45.88;31.50;;;;;;;5.79;89.31;100604.55;3243801;85;21005;-74
2022/11/10 04:10:30;;;;;;;46.45;31.87;;;;;;;5.79;89.37;100613.58;3233728;85;21063;-74
2022/11/10 04:15:43;;;;;;;50.43;35.43;;;;;;;5.79;89.31;100616.16;3240460;85;21318;-74
2022/11/10 04:20:59;;;;;;;52.03;33.48;;;;;;;5.77;89.51;100617.81;3262430;84;21491;-74
2022/11/10 04:26:28;;;;;;;44.98;31.42;;;;;;;5.79;89.53;100621.32;3306274;84;20999;-74
2022/11/10 04:31:40;;;;;;;46.37;29.72;;;;;;;5.78;89.47;100623.42;3295633;84;21049;-74
2022/11/10 04:36:49;;;;;;;49.53;32.00;;;;;;;5.78;89.51;100647.93;3275615;85;21075;-74
2022/11/10 04:41:59;;;;;;;51.90;35.83;;;;;;;5.79;89.66;100639.38;3273320;84;21004;-74
2022/11/10 04:47:08;;;;;;;50.40;36.35;;;;;;;5.82;89.78;100618.86;3252863;84;20965;-74
2022/11/10 04:52:18;;;;;;;47.00;32.93;;;;;;;5.86;89.85;100629.73;3239580;84;21090;-74
2022/11/10 04:57:28;;;;;;;54.33;36.35;;;;;;;5.88;89.89;100646.15;3254732;85;21086;-74
2022/11/10 05:02:37;;;;;;;49.73;37.23;;;;;;;5.94;89.97;100638.64;3236031;85;21581;-75
2022/11/10 05:07:47;;;;;;;50.58;33.00;;;;;;;6.01;90.08;100647.09;3245474;84;21002;-74
2022/11/10 05:12:58;;;;;;;52.13;35.90;;;;;;;6.08;90.10;100649.44;3268227;84;21559;-74
2022/11/10 05:18:07;;;;;;;50.35;34.30;;;;;;;6.11;90.04;100647.84;3226618;85;21976;-74
2022/11/10 05:28:46;;;;;;;51.20;33.65;;;;;;;6.18;90.09;100659.69;3252743;84;21104;-74
2022/11/10 05:33:57;;;;;;;49.13;34.15;;;;;;;6.20;90.11;100663.19;3236260;84;21721;-74
2022/11/10 05:39:07;;;;;;;50.10;35.35;;;;;;;6.23;90.22;100664.17;3269144;84;21563;-73
2022/11/10 05:44:16;;;;;;;52.03;36.10;;;;;;;6.28;90.27;100683.70;3290075;84;21569;-74
2022/11/10 05:49:26;;;;;;;49.83;36.88;;;;;;;6.30;90.32;100701.41;3282341;85;21706;-75
2022/11/10 05:54:35;;;;;;;52.62;38.58;;;;;;;6.32;90.40;100702.34;3247973;84;21036;-74
2022/11/10 05:59:45;;;;;;;50.55;35.73;;;;;;;6.36;90.44;100715.81;3242086;86;21486;-74
2022/11/10 06:04:55;;;;;;;48.02;36.28;;;;;;;6.38;90.48;100728.36;3228550;86;21043;-75
2022/11/10 06:10:07;;;;;;;57.62;38.78;;;;;;;6.41;90.60;100743.09;3251201;86;21047;-75
2022/11/10 06:15:16;;;;;;;52.15;36.80;;;;;;;6.44;90.68;100747.95;3215392;86;21628;-76
2022/11/10 06:20:26;;;;;;;51.20;38.45;;;;;;;6.48;90.77;100755.40;3215397;84;21003;-74
2022/11/10 06:25:39;;;;;;;53.52;38.30;;;;;;;6.53;90.81;100755.53;3215877;86;21528;-74
2022/11/10 06:30:49;;;;;;;58.63;38.42;;;;;;;6.54;90.75;100764.62;3258791;85;21042;-74
2022/11/10 06:35:59;;;;;;;51.08;38.23;;;;;;;6.59;90.90;100773.84;3280903;84;21502;-74
2022/11/10 06:41:09;;;;;;;51.53;35.23;;;;;;;6.61;91.02;100779.94;3257469;84;21756;-75
2022/11/10 06:46:18;;;;;;;50.83;37.17;;;;;;;6.64;91.01;100783.92;3265932;84;21038;-74
2022/11/10 06:51:28;;;;;;;54.23;38.63;;;;;;;6.69;91.09;100794.01;3269857;84;21063;-74
2022/11/10 06:56:38;;;;;;;56.95;38.45;;;;;;;6.73;91.14;100795.86;3270875;84;21001;-74
2022/11/10 07:01:48;;;;;;;57.10;38.35;;;;;;;6.78;91.12;100810.20;3274833;84;21024;-75
2022/11/10 07:06:58;;;;;;;54.58;37.50;;;;;;;6.81;91.22;100815.06;3264289;85;21536;-74
2022/11/10 07:12:07;;;;;;;55.20;38.30;;;;;;;6.90;91.51;100826.55;3238724;85;21058;-75
2022/11/10 07:17:17;;;;;;;52.60;38.17;;;;;;;6.90;91.51;100826.55;3209811;85;21426;-74
2022/11/10 07:22:26;;;;;;;57.58;39.55;;;;;;;6.88;91.44;100820.03;3236473;84;21043;-74
2022/11/10 07:27:36;;;;;;;56.00;37.88;;;;;;;7.00;91.22;100840.27;3254873;85;21015;-73
2022/11/10 07:33:33;;;;;;;60.90;41.18;;;;;;;7.15;91.65;100852.38;3208980;86;21147;-74
2022/11/10 07:38:31;;;;;;;54.65;38.85;;;;;;;7.15;91.65;100852.38;3281614;84;21096;-74
2022/11/10 07:43:40;;;;;;;52.43;37.53;;;;;;;7.21;91.58;100846.56;3240110;86;21048;-74
2022/11/10 07:48:50;;;;;;;52.38;37.73;;;;;;;7.36;91.83;100848.75;3243307;85;20999;-72
2022/11/10 07:54:46;;;;;;;55.63;36.93;;;;;;;7.41;91.90;100853.24;3275062;84;21033;-71
2022/11/10 07:59:53;;;;;;;57.73;37.75;;;;;;;7.41;91.90;100853.24;3157707;88;21014;-74
2022/11/10 08:05:03;;;;;;;50.45;35.83;;;;;;;7.57;92.04;100871.85;3117581;89;21038;-72
2022/11/10 08:10:13;;;;;;;58.10;37.28;;;;;;;7.57;92.04;100871.85;3135994;89;21065;-72
2022/11/10 08:15:26;;;;;;;54.70;37.28;;;;;;;7.66;91.98;100884.20;3126405;89;21058;-75
2022/11/10 08:20:39;;;;;;;58.70;39.53;;;;;;;7.71;92.02;100880.02;3162583;89;20999;-74
2022/11/10 08:25:51;;;;;;;58.42;39.88;;;;;;;7.78;92.11;100892.33;3127977;88;21074;-74
2022/11/10 08:31:03;;;;;;;55.00;37.05;;;;;;;7.83;92.11;100902.41;3168375;85;20999;-74
2022/11/10 08:36:13;;;;;;;56.33;36.13;;;;;;;7.94;92.21;100898.47;3243124;86;20979;-74
2022/11/10 08:41:22;;;;;;;56.00;38.00;;;;;;;7.94;92.21;100898.47;3241801;84;21123;-75
2022/11/10 08:46:32;;;;;;;56.33;37.65;;;;;;;8.05;92.14;100910.44;3260630;86;21020;-74
2022/11/10 08:51:41;;;;;;;57.62;37.53;;;;;;;8.19;92.30;100927.67;3282302;85;20984;-74
2022/11/10 08:56:51;;;;;;;55.88;36.80;;;;;;;8.19;92.30;100927.67;3261190;84;21205;-75
2022/11/10 09:02:01;;;;;;;58.40;35.80;;;;;;;8.26;92.35;100939.09;3238615;84;20998;-73
2022/11/10 09:07:10;;;;;;;53.87;34.60;;;;;;;8.31;92.51;100934.52;3267382;85;21020;-75
2022/11/10 09:12:20;;;;;;;51.88;33.30;;;;;;;8.39;92.82;100938.22;3267532;84;20984;-73
2022/11/10 09:17:31;;;;;;;54.60;34.30;;;;;;;8.46;92.80;100938.42;3248813;84;21024;-73
2022/11/10 09:22:41;;;;;;;50.03;32.60;;;;;;;8.50;92.81;100950.66;3258475;85;20982;-73
2022/11/10 09:27:51;;;;;;;51.48;33.02;;;;;;;8.55;92.92;100959.45;3240028;84;21130;-73
2022/11/10 09:33:00;;;;;;;47.90;32.78;;;;;;;8.67;93.09;100972.73;3242288;84;21030;-73
2022/11/10 09:38:10;;;;;;;50.20;32.00;;;;;;;8.74;93.04;100979.84;3252960;84;21005;-73
2022/11/10 09:43:29;;;;;;;49.35;32.15;;;;;;;8.81;92.93;100980.05;3259356;84;20985;-73
2022/11/10 09:48:50;;;;;;;52.90;32.33;;;;;;;8.88;93.12;100971.60;3258177;84;20966;-73
2022/11/10 09:54:24;;;;;;;50.88;31.95;;;;;;;8.99;93.10;100977.95;3246838;85;21521;-73
2022/11/10 09:59:35;;;;;;;45.90;29.05;;;;;;;9.06;93.37;100977.28;3265185;84;21040;-74
2022/11/10 10:05:14;;;;;;;44.67;27.67;;;;;;;9.16;93.35;100985.78;3274191;84;21605;-73
2022/11/10 10:11:01;;;;;;;41.05;28.42;;;;;;;9.24;93.59;100999.37;3281776;84;21066;-75
2022/11/10 10:16:59;;;;;;;40.05;27.20;;;;;;;9.28;93.76;100998.61;3294512;84;21074;-74
2022/11/10 10:22:44;;;;;;;46.90;28.10;;;;;;;9.35;93.75;100995.34;3278721;84;21522;-77
2022/11/10 10:28:23;;;;;;;40.58;25.85;;;;;;;9.51;93.86;101001.42;3265450;84;21003;-75
2022/11/10 10:33:33;;;;;;;42.08;28.32;;;;;;;9.60;93.76;101007.66;3276169;84;21111;-74
2022/11/10 10:38:45;;;;;;;39.67;26.85;;;;;;;9.71;93.60;101010.11;3287664;84;20989;-76
2022/11/10 10:43:58;;;;;;;38.65;26.93;;;;;;;9.82;93.70;101010.37;3258664;84;21121;-77
2022/11/10 10:49:29;;;;;;;37.23;27.35;;;;;;;9.97;93.58;101015.08;3258531;84;20993;-74
2022/11/10 10:54:39;;;;;;;36.98;27.58;;;;;;;10.11;93.43;101000.70;3278449;84;21002;-75
2022/11/10 10:59:51;;;;;;;40.85;27.90;;;;;;;10.22;93.29;101000.95;3283768;84;20983;-74
2022/11/10 11:05:17;;;;;;;39.63;27.48;;;;;;;10.39;93.14;101002.64;3281605;84;21421;-75
2022/11/10 11:10:32;;;;;;;32.38;24.85;;;;;;;10.60;92.93;100999.22;3254705;84;21528;-74
2022/11/10 11:15:44;;;;;;;34.45;24.20;;;;;;;10.65;92.71;101005.39;3290046;85;20969;-75
2022/11/10 11:21:33;;;;;;;27.85;24.05;;;;;;;10.76;92.60;101006.05;3237592;85;21011;-74
2022/11/10 11:27:04;;;;;;;32.20;24.43;;;;;;;10.71;92.54;101012.44;3275969;84;21628;-76
2022/11/10 11:32:25;;;;;;;33.10;25.57;;;;;;;10.78;92.51;101010.86;3159475;88;21026;-75
2022/11/10 11:38:02;;;;;;;28.55;23.07;;;;;;;10.93;92.57;101023.30;3163646;88;20967;-75
2022/11/10 11:43:59;;;;;;;29.87;22.35;;;;;;;11.06;92.04;101014.47;3167200;88;21303;-75
2022/11/10 11:49:33;;;;;;;27.70;22.02;;;;;;;11.11;92.12;101021.52;3143402;89;21049;-74
2022/11/10 11:55:16;;;;;;;33.83;22.07;;;;;;;11.10;92.04;101027.55;3166711;88;21003;-74
2022/11/10 12:00:32;;;;;;;32.33;22.20;;;;;;;11.15;91.92;101027.22;3180300;88;21385;-74
2022/11/10 12:06:12;;;;;;;23.12;19.35;;;;;;;11.21;91.82;101032.53;3209972;84;21007;-74
2022/11/10 12:12:10;;;;;;;27.17;20.95;;;;;;;11.16;91.98;101039.37;3262919;84;20996;-74
2022/11/10 12:17:41;;;;;;;26.40;21.15;;;;;;;11.20;92.02;101041.20;3286011;84;21221;-74
2022/11/10 12:23:16;;;;;;;21.97;18.10;;;;;;;11.31;91.67;101034.47;3293059;84;21015;-74
2022/11/10 12:28:49;;;;;;;21.60;17.00;;;;;;;11.44;91.50;101045.55;3272095;84;21602;-75
2022/11/10 12:34:16;;;;;;;20.72;16.12;;;;;;;11.53;91.29;101050.49;3279175;85;20985;-75
2022/11/10 12:39:53;;;;;;;21.65;16.15;;;;;;;11.59;91.18;101057.13;3304828;84;20998;-74
2022/11/10 12:45:20;;;;;;;21.33;15.32;;;;;;;11.65;91.41;101065.05;3277363;84;21004;-75
2022/11/10 12:50:50;;;;;;;19.92;15.93;;;;;;;11.80;90.73;101061.42;3234545;85;20956;-74
2022/11/10 12:56:33;;;;;;;18.92;14.63;;;;;;;11.79;90.43;101068.77;3305580;84;21025;-74
2022/11/10 13:01:44;;;;;;;17.52;13.88;;;;;;;11.69;90.55;101083.77;3270479;84;21011;-74
2022/11/10 13:07:01;;;;;;;17.15;14.87;;;;;;;11.55;90.62;101096.53;3296364;84;20987;-76
2022/11/10 13:12:23;;;;;;;14.47;12.97;;;;;;;11.43;90.61;101102.83;3289585;84;21568;-75
2022/11/10 13:17:42;;;;;;;18.50;14.30;;;;;;;11.29;90.66;101107.76;3268759;85;21513;-75
2022/11/10 13:22:51;;;;;;;17.62;13.28;;;;;;;11.21;90.74;101120.63;3300997;84;21036;-75
2022/11/10 13:28:01;;;;;;;19.23;15.00;;;;;;;11.11;90.80;101121.70;3248869;84;20983;-75
2022/11/10 13:33:29;;;;;;;17.62;14.55;;;;;;;11.08;90.83;101124.23;3263846;83;20985;-75
2022/11/10 13:38:42;;;;;;;17.42;14.43;;;;;;;11.10;90.92;101123.83;3308109;83;21023;-75
2022/11/10 13:43:55;;;;;;;17.75;14.07;;;;;;;11.06;90.73;101135.47;3248559;84;21047;-79
2022/11/10 13:49:53;;;;;;;22.00;14.98;;;;;;;11.05;90.77;101141.53;3256118;86;21098;-76
2022/11/10 13:55:26;;;;;;;16.75;14.05;;;;;;;11.00;90.76;101158.77;3262091;84;21012;-77
2022/11/10 14:00:36;;;;;;;18.50;13.95;;;;;;;10.91;91.00;101158.56;3271841;85;21528;-76
2022/11/10 14:06:07;;;;;;;18.32;14.40;;;;;;;10.85;91.04;101172.72;3287981;84;20990;-76
2022/11/10 14:11:24;;;;;;;16.05;14.28;;;;;;;10.79;91.15;101183.86;3258114;85;20998;-76
2022/11/10 14:16:41;;;;;;;18.55;14.47;;;;;;;10.74;91.31;101199.78;3253839;84;21043;-77
2022/11/10 14:21:58;;;;;;;17.42;14.38;;;;;;;10.70;91.32;101198.38;3274167;83;21533;-76
2022/11/10 14:27:14;;;;;;;20.50;14.23;;;;;;;10.66;91.42;101208.70;3266120;84;21240;-75
2022/11/10 14:32:25;;;;;;;21.48;14.83;;;;;;;10.63;91.38;101215.12;3241218;84;21025;-74
2022/11/10 14:37:35;;;;;;;21.80;14.80;;;;;;;10.57;91.15;101216.28;3283090;84;20971;-75
2022/11/10 14:42:46;;;;;;;16.82;13.50;;;;;;;10.48;91.18;101222.52;3282192;84;21051;-74
2022/11/10 14:47:59;;;;;;;18.25;13.30;;;;;;;10.37;91.27;101235.67;3285316;84;20992;-75
2022/11/10 14:53:19;;;;;;;16.97;13.68;;;;;;;10.27;91.36;101242.33;3240115;84;21057;-74
2022/11/10 14:58:39;;;;;;;15.58;13.43;;;;;;;10.17;91.44;101241.19;3266520;84;21020;-74
2022/11/10 15:03:48;;;;;;;17.17;13.85;;;;;;;10.05;91.25;101259.03;3263708;85;20997;-74
2022/11/10 15:08:59;;;;;;;19.20;15.60;;;;;;;9.88;91.45;101265.94;3251625;85;21443;-75
2022/11/10 15:14:37;;;;;;;18.07;14.35;;;;;;;9.80;91.58;101275.25;3235199;84;21114;-74
2022/11/10 15:19:54;;;;;;;19.17;14.53;;;;;;;9.65;91.50;101282.58;3114067;89;21024;-76
2022/11/10 15:25:15;;;;;;;25.52;15.32;;;;;;;9.51;91.76;101292.14;3114657;89;21018;-75
2022/11/10 15:30:25;;;;;;;16.62;14.47;;;;;;;9.40;91.98;101300.00;3144399;89;22278;-74
2022/11/10 15:35:35;;;;;;;14.58;12.78;;;;;;;9.28;91.86;101299.61;3097301;88;21078;-75
2022/11/10 15:40:48;;;;;;;19.65;15.20;;;;;;;9.12;92.00;101309.52;3145559;89;21053;-74
2022/11/10 15:46:02;;;;;;;18.35;14.07;;;;;;;9.01;92.13;101317.77;3100550;89;21013;-77
2022/11/10 15:51:15;;;;;;;17.95;15.05;;;;;;;8.88;92.04;101322.97;3142419;88;21654;-73
2022/11/10 15:56:25;;;;;;;21.93;15.28;;;;;;;8.77;92.18;101327.37;3278971;83;20999;-75
2022/11/10 16:01:35;;;;;;;17.05;13.98;;;;;;;8.67;92.43;101326.58;3213288;85;21049;-76
2022/11/10 16:06:45;;;;;;;21.05;15.23;;;;;;;8.61;92.35;101330.27;3242068;85;21079;-77
2022/11/10 16:11:54;;;;;;;16.73;13.22;;;;;;;8.56;92.40;101340.47;3277003;84;21019;-76
2022/11/10 16:17:08;;;;;;;20.60;15.55;;;;;;;8.50;92.16;101358.83;3272146;85;21119;-75
2022/11/10 16:22:18;;;;;;;14.70;11.28;;;;;;;8.39;92.26;101367.48;3260567;84;20968;-75
2022/11/10 16:27:27;;;;;;;16.62;12.07;;;;;;;8.27;91.94;101380.86;3281762;84;22344;-77
2022/11/10 16:32:37;;;;;;;14.83;12.25;;;;;;;8.14;91.85;101394.19;3231907;84;21582;-76
2022/11/10 16:37:48;;;;;;;17.12;13.65;;;;;;;8.12;92.16;101399.70;3238568;85;21042;-76
2022/11/10 16:42:57;;;;;;;18.70;14.33;;;;;;;8.13;92.36;101414.42;3244982;85;21026;-76
2022/11/10 16:48:07;;;;;;;18.42;14.30;;;;;;;8.23;92.62;101432.09;3280116;84;21063;-76
2022/11/10 16:53:24;;;;;;;24.72;15.23;;;;;;;8.35;92.85;101434.25;3215011;85;20989;-75
2022/11/10 16:58:34;;;;;;;21.27;16.07;;;;;;;8.45;93.11;101438.98;3292457;84;21009;-76
2022/11/10 17:03:50;;;;;;;22.30;16.87;;;;;;;8.53;93.16;101437.96;3283508;84;21047;-78
2022/11/10 17:09:07;;;;;;;23.40;17.57;;;;;;;8.68;93.58;101445.44;3287297;84;21074;-76
2022/11/10 17:14:17;;;;;;;21.62;18.30;;;;;;;8.71;93.22;101453.30;3237814;86;21069;-75
2022/11/10 17:19:27;;;;;;;22.20;17.25;;;;;;;8.65;93.11;101448.78;3270223;84;21707;-75
2022/11/10 17:24:37;;;;;;;25.65;16.95;;;;;;;8.59;92.96;101456.35;3272315;84;21014;-76
2022/11/10 17:29:53;;;;;;;21.65;17.70;;;;;;;8.56;93.10;101453.64;3234981;84;21040;-76
2022/11/10 17:35:06;;;;;;;19.80;16.60;;;;;;;8.60;93.31;101458.09;3250986;84;32734;-76
2022/11/10 17:40:22;;;;;;;20.20;17.07;;;;;;;8.68;93.09;101462.30;3206318;87;21252;-74
2022/11/10 17:45:36;;;;;;;19.65;16.87;;;;;;;8.67;92.89;101464.40;3218849;86;20997;-77
2022/11/10 17:51:17;;;;;;;22.50;17.23;;;;;;;8.52;92.60;101460.84;3242416;86;21592;-75
2022/11/10 17:56:27;;;;;;;18.50;16.60;;;;;;;8.46;92.60;101474.84;3203836;85;21103;-75
2022/11/10 18:01:37;;;;;;;23.12;16.97;;;;;;;8.39;92.84;101492.73;3195502;86;21024;-76
2022/11/10 18:06:47;;;;;;;17.82;15.93;;;;;;;8.29;92.64;101488.02;3197666;87;21075;-76
2022/11/10 18:11:57;;;;;;;18.57;14.90;;;;;;;8.27;92.69;101508.23;3203307;87;21020;-75
2022/11/10 18:17:07;;;;;;;20.70;16.95;;;;;;;8.13;92.18;101506.38;3229208;86;21585;-74
2022/11/10 18:22:17;;;;;;;18.45;15.78;;;;;;;8.09;92.56;101520.05;3138449;87;21026;-75
2022/11/10 18:27:28;;;;;;;17.82;15.38;;;;;;;7.97;92.36;101516.12;3186348;88;21100;-75
2022/11/10 18:32:37;;;;;;;19.87;15.32;;;;;;;7.90;92.65;101505.04;3251944;85;21030;-74
2022/11/10 18:37:47;;;;;;;17.85;15.03;;;;;;;7.81;92.55;101520.20;3217818;86;21008;-74
2022/11/10 18:43:00;;;;;;;16.37;13.62;;;;;;;7.72;92.67;101530.19;3248572;84;21093;-74
2022/11/10 18:48:10;;;;;;;17.23;13.60;;;;;;;7.62;92.46;101528.52;3222850;86;21078;-74
2022/11/10 18:53:20;;;;;;;18.60;16.02;;;;;;;7.61;92.43;101533.62;3250836;86;21117;-75
2022/11/10 18:58:29;;;;;;;19.75;15.68;;;;;;;7.49;92.40;101527.92;3228569;85;21072;-74
2022/11/10 19:03:41;;;;;;;17.37;15.30;;;;;;;7.49;92.40;101527.92;3277676;84;21047;-74
2022/11/10 19:08:51;;;;;;;16.52;14.75;;;;;;;7.42;91.92;101552.64;3250713;84;22312;-74
2022/11/10 19:14:01;;;;;;;20.15;15.85;;;;;;;7.32;92.17;101558.26;3248177;85;20954;-75
2022/11/10 19:19:11;;;;;;;21.27;17.70;;;;;;;7.18;91.62;101557.23;3239974;85;21058;-74
2022/11/10 19:24:21;;;;;;;17.37;15.43;;;;;;;7.12;92.16;101563.82;3218437;85;21080;-74
2022/11/10 19:29:30;;;;;;;16.15;14.45;;;;;;;7.01;91.68;101569.80;3187550;86;21015;-75
2022/11/10 19:34:41;;;;;;;21.12;16.48;;;;;;;6.93;91.34;101585.40;3263121;86;21191;-75
2022/11/10 19:39:50;;;;;;;20.08;16.62;;;;;;;6.73;91.21;101593.12;3274979;84;21004;-75
2022/11/10 19:45:01;;;;;;;21.48;17.07;;;;;;;6.73;91.21;101593.12;3243922;85;21078;-75
2022/11/10 19:50:18;;;;;;;22.37;18.17;;;;;;;6.71;91.39;101606.77;3256773;86;21052;-75
2022/11/10 19:55:41;;;;;;;22.15;17.52;;;;;;;6.65;91.65;101620.28;3241299;86;21015;-76
2022/11/10 20:00:50;;;;;;;26.87;21.00;;;;;;;6.60;91.67;101623.05;3260098;86;21609;-75
2022/11/10 20:06:04;;;;;;;27.15;20.85;;;;;;;6.43;91.17;101641.22;3283713;84;20987;-75
2022/11/10 20:11:22;;;;;;;34.05;24.80;;;;;;;6.43;91.17;101641.22;3221227;85;21002;-75
2022/11/10 20:16:31;;;;;;;26.53;23.30;;;;;;;6.35;91.39;101651.61;3244906;84;21023;-74
2022/11/10 20:22:11;;;;;;;29.35;25.50;;;;;;;6.27;91.30;101637.41;3231819;85;21019;-76
2022/11/10 20:27:07;;;;;;;29.85;25.55;;;;;;;6.21;91.11;101643.59;3257380;84;21030;-74
2022/11/10 20:32:16;;;;;;;35.33;27.90;;;;;;;6.13;90.96;101646.17;3244493;85;21526;-75
2022/11/10 20:37:26;;;;;;;31.62;25.45;;;;;;;6.05;91.11;101638.06;3170970;87;21062;-75
2022/11/10 20:42:36;;;;;;;28.12;23.95;;;;;;;5.95;90.77;101640.53;3242475;85;21008;-75
2022/11/10 20:47:48;;;;;;;28.90;24.65;;;;;;;5.90;90.91;101645.48;3249403;84;21095;-76
2022/11/10 20:52:58;;;;;;;35.00;26.25;;;;;;;5.83;90.69;101647.65;3247985;84;21012;-77
2022/11/10 20:58:07;;;;;;;33.08;25.90;;;;;;;5.80;90.81;101650.09;3239408;84;21011;-75
2022/11/10 21:03:18;;;;;;;39.00;31.33;;;;;;;5.79;90.88;101648.31;3205188;86;21055;-75
2022/11/10 21:08:29;;;;;;;38.40;30.62;;;;;;;5.75;91.19;101638.64;3258111;84;21050;-75
2022/11/10 21:13:38;;;;;;;35.90;29.95;;;;;;;5.73;91.14;101636.86;3254746;86;20948;-74
2022/11/10 21:18:48;;;;;;;38.67;29.77;;;;;;;5.73;91.29;101647.59;3233983;86;22143;-74
2022/11/10 21:23:57;;;;;;;29.12;22.98;;;;;;;5.65;90.98;101651.08;3212136;86;21607;-74
2022/11/10 21:29:07;;;;;;;28.02;24.25;;;;;;;5.56;90.42;101658.31;3276001;84;21027;-74
2022/11/10 21:34:17;;;;;;;64.90;38.75;;;;;;;5.52;90.62;101664.13;3284155;84;21327;-74
2022/11/10 21:39:26;;;;;;;78.60;45.03;;;;;;;5.44;90.28;101678.33;3224069;86;21016;-74
2022/11/10 21:44:36;;;;;;;94.45;53.52;;;;;;;5.38;90.08;101684.44;3253245;85;20997;-74
2022/11/10 21:49:46;;;;;;;95.80;57.43;;;;;;;5.35;90.91;101679.60;3243640;86;21004;-75
2022/11/10 21:54:56;;;;;;;95.17;51.58;;;;;;;5.35;91.15;101682.18;3240000;86;21279;-74
2022/11/10 22:00:09;;;;;;;76.02;44.65;;;;;;;5.32;90.73;101684.59;3522552;77;21002;-74
2022/11/10 22:05:18;;;;;;;66.02;40.85;;;;;;;5.23;90.40;101686.67;3579659;77;20998;-74
2022/11/10 22:21:24;;;;;;;40.65;26.93;;;;;;;4.99;89.92;101693.06;3534461;77;20487;-74
2022/11/10 22:26:34;;;;;;;40.73;28.57;;;;;;;4.88;89.95;101692.47;3498424;77;21116;-74
2022/11/10 22:31:44;;;;;;;32.40;24.50;;;;;;;4.82;89.87;101694.30;3557510;78;21047;-75
2022/11/10 22:36:54;;;;;;;27.13;22.58;;;;;;;4.74;89.69;101699.04;3539756;77;20998;-73
2022/11/10 22:48:24;;;;;;;28.00;22.55;;;;;;;4.56;89.24;101709.56;3527727;77;20959;-74
2022/11/10 22:52:43;;;;;;;32.70;23.12;;;;;;;4.48;89.04;101705.27;3532507;77;21624;-75
2022/11/10 22:57:53;;;;;;;28.38;22.10;;;;;;;4.42;88.87;101708.80;3501838;77;20958;-74
2022/11/10 23:03:03;;;;;;;28.55;23.45;;;;;;;4.35;88.97;101724.70;3494134;79;20963;-73
2022/11/10 23:08:13;;;;;;;36.10;24.98;;;;;;;4.28;88.95;101727.70;3532316;78;21601;-74
2022/11/10 23:13:22;;;;;;;30.00;22.73;;;;;;;4.23;89.03;101731.28;3522373;77;21522;-73
2022/11/10 23:18:31;;;;;;;25.37;21.07;;;;;;;4.15;88.64;101737.28;3554175;78;21547;-73
2022/11/10 23:23:42;;;;;;;30.60;23.35;;;;;;;4.06;88.45;101731.59;3547367;78;21111;-75
2022/11/10 23:29:21;;;;;;;26.52;21.65;;;;;;;4.01;88.52;101727.85;3517508;78;21816;-76
2022/11/10 23:34:30;;;;;;;28.85;22.55;;;;;;;3.96;88.31;101730.55;3592268;77;21060;-77
2022/11/10 23:39:41;;;;;;;30.30;22.00;;;;;;;3.92;88.59;101738.88;3561488;78;21581;-76
2022/11/10 23:50:14;;;;;;;32.98;21.05;;;;;;;3.77;88.42;101741.02;3566461;78;21026;-76
2022/11/10 23:55:24;;;;;;;26.45;19.80;;;;;;;3.73;88.38;101746.75;3545995;77;21586;-78
